METAR UND TAF INFORMATION
AYPY 270600Z 12010G20KT 9999 SCT015 SCT025 29/25 Q1009 RMK

 FLUGHAFENKARTE

 RUNWAY INFORMATION
Runway 14L Runway length 9022 ft Runway width 148 ft
Runway elevation 103 ft Runway displaced threshold 0 ft Runway heading 148
Runway 32R Runway length 9022 ft Runway width 148 ft
Runway elevation 128 ft Runway displaced threshold 0 ft Runway heading 328
Runway 14R Runway length 6777 ft Runway width 148 ft
Runway elevation 104 ft Runway displaced threshold 0 ft Runway heading 149
Runway 32L Runway length 6777 ft Runway width 148 ft
Runway elevation 146 ft Runway displaced threshold 0 ft Runway heading 329

 AIRPORT FREQUENCIES
Type APP Name JACKSONS A Frequency 125.8 MHZ
Type ATIS Name ATIS Frequency 117 MHZ
Type GND Name JACKSONS G Frequency 121.7 MHZ
Type TWR Name JACKSONS T Frequency 118.1 MHZ

 AIRPORT NEAR NAVIGATION AIDS
Type NDB Name Jackson Frequency 380 KHZ
Type NDB Name Parer Frequency 395 KHZ
Type VOR-DME Name Port Moresby Frequency 117000 KHZ
Type NDB Name Port Moresby Frequency 368 KHZ